Archival Weather

Tokyo Intl

Tokyo Intl, Japan (RJTT)

Report from: Friday, June 24, 2022 6:48 PM JST
Current time: Tuesday, August 16, 2022 10:26 AM JST

Current weather
Weather history
Weather forecast

Temperature28.0°C (82.4°F)
Heat index31.4°C (88.5°F)
Dew point23.0°C (73.4°F)
Winds 18 kts (9.3 m/s, 20.7 mph) South-Southwest (200°)
Wind gusts 28 kts (14.4 m/s, 32.2 mph)
Visibility6.2 mi. (10 km)
Clouds Ceiling: Broken clouds 0 ft. (0 m)
Few clouds 2,000 ft. (610 m)
Altimeter29.62 in.Hg (1003 mB)
Relative humidity74 %
Density altitude2,219 ft. (676 m)
Remarks Special weather observation
Flight conditions Low Instrument Meteorological Conditions
Raw dataSPJP31 KWBC 240955 SPECI RJTT 240948Z 20018G28KT 9999 FEW020 BKN/// 28/23 Q1003 RMK 1CU020 A2963
An error has occurred. This application may no longer respond until reloaded. Reload 🗙